createdAt,value
2023-02-26T00:01:42.206Z,94650.25
2023-02-26T00:04:11.361Z,94660.88
2023-02-26T00:06:53.933Z,94646.25
2023-02-26T00:09:25.107Z,94655.13
2023-02-26T00:11:53.706Z,94649.91
2023-02-26T00:14:23.554Z,94655.19
2023-02-26T00:16:59.347Z,94652.13
2023-02-26T00:19:27.674Z,94651.63
2023-02-26T00:21:56.462Z,94646.44
2023-02-26T00:24:24.471Z,94647.50
2023-02-26T00:26:52.568Z,94654.81
2023-02-26T00:29:22.773Z,94652.00
2023-02-26T00:31:51.413Z,94641.88
2023-02-26T00:34:20.673Z,94650.78
2023-02-26T00:37:01.499Z,94640.66
2023-02-26T00:39:41.268Z,94648.53
2023-02-26T00:42:10.139Z,94641.28
2023-02-26T00:44:40.668Z,94644.16
2023-02-26T00:47:17.748Z,94637.91
2023-02-26T00:50:02.828Z,94631.06
2023-02-26T00:52:37.829Z,94636.22
2023-02-26T00:55:06.477Z,94642.44
2023-02-26T00:57:34.402Z,94633.19
2023-02-26T01:00:06.032Z,94634.97
2023-02-26T01:02:34.627Z,94636.16
2023-02-26T01:05:04.223Z,94629.84
2023-02-26T01:07:41.990Z,94622.75
2023-02-26T01:10:11.827Z,94624.06
2023-02-26T01:12:40.638Z,94630.84
2023-02-26T01:15:11.261Z,94619.91
2023-02-26T01:17:46.566Z,94616.31
2023-02-26T01:20:19.406Z,94612.66
2023-02-26T01:22:53.604Z,94602.03
2023-02-26T01:25:26.784Z,94609.34
2023-02-26T01:27:56.957Z,94598.94
2023-02-26T01:30:27.659Z,94598.38
2023-02-26T01:33:02.605Z,94594.72
2023-02-26T01:35:41.048Z,94594.94
2023-02-26T01:38:19.597Z,94590.50
2023-02-26T01:41:14.430Z,94578.53
2023-02-26T01:43:49.706Z,94571.00
2023-02-26T01:46:27.393Z,94570.78
2023-02-26T01:48:57.221Z,94572.31
2023-02-26T01:51:49.924Z,94565.09
2023-02-26T01:54:21.954Z,94565.91
2023-02-26T01:56:53.137Z,94559.94
2023-02-26T01:59:24.773Z,94565.44
2023-02-26T02:01:57.708Z,94557.91
2023-02-26T02:04:27.114Z,94552.41
2023-02-26T02:06:55.802Z,94550.66
2023-02-26T02:09:23.875Z,94551.69
2023-02-26T02:12:08.472Z,94528.88
2023-02-26T02:14:47.558Z,94522.09
2023-02-26T02:17:25.386Z,94529.44
2023-02-26T02:20:13.788Z,94521.91
2023-02-26T02:23:00.050Z,94510.22
2023-02-26T02:25:59.400Z,94516.06
2023-02-26T02:28:38.652Z,94510.91
2023-02-26T02:31:13.228Z,94512.25
2023-02-26T02:33:48.202Z,94507.31
2023-02-26T02:36:22.442Z,94483.97
2023-02-26T02:38:56.779Z,94491.28
2023-02-26T02:41:30.185Z,94498.59
2023-02-26T02:44:02.509Z,94506.41
2023-02-26T02:46:35.892Z,94508.50
2023-02-26T02:49:06.750Z,94516.59
2023-02-26T02:51:38.434Z,94500.78
2023-02-26T02:54:11.770Z,94498.16
2023-02-26T02:56:44.975Z,94498.16
2023-02-26T02:59:19.414Z,94501.31
2023-02-26T03:01:53.315Z,94504.97
2023-02-26T03:04:21.375Z,94496.19
2023-02-26T03:06:50.222Z,94498.84
2023-02-26T03:09:18.247Z,94501.50
2023-02-26T03:11:46.231Z,94483.38
2023-02-26T03:14:15.674Z,94469.88
2023-02-26T03:17:11.726Z,94472.53
2023-02-26T03:19:50.598Z,94450.44
2023-02-26T03:22:23.821Z,94457.25
2023-02-26T03:24:57.893Z,94460.91
2023-02-26T03:27:30.532Z,94459.66
2023-02-26T03:30:03.721Z,94463.03
2023-02-26T03:32:41.778Z,94462.75
2023-02-26T03:35:15.993Z,94476.72
2023-02-26T03:37:47.869Z,94483.00
2023-02-26T03:40:20.146Z,94467.44
2023-02-26T03:42:53.601Z,94450.38
2023-02-26T03:45:26.663Z,94445.25
2023-02-26T03:47:57.696Z,94466.59
2023-02-26T03:50:29.441Z,94457.75
2023-02-26T03:53:01.297Z,94447.34
2023-02-26T03:55:35.453Z,94459.56
2023-02-26T03:58:03.988Z,94459.84
2023-02-26T04:00:34.204Z,94459.84
2023-02-26T04:03:09.697Z,94453.59
2023-02-26T04:05:42.386Z,94435.94
2023-02-26T04:08:10.837Z,94436.22
2023-02-26T04:10:45.290Z,94433.41
2023-02-26T04:13:13.375Z,94432.63
2023-02-26T04:15:41.481Z,94429.75
2023-02-26T04:18:10.897Z,94423.78
2023-02-26T04:20:38.938Z,94427.66
2023-02-26T04:23:06.903Z,94438.06
2023-02-26T04:25:34.934Z,94424.84
2023-02-26T04:28:03.276Z,94438.13
2023-02-26T04:30:31.349Z,94449.56
2023-02-26T04:32:59.536Z,94430.88
2023-02-26T04:35:29.006Z,94425.94
2023-02-26T04:37:57.084Z,94423.34
2023-02-26T04:40:25.118Z,94409.31
2023-02-26T04:42:53.127Z,94397.03
2023-02-26T04:45:21.167Z,94413.63
2023-02-26T04:47:49.196Z,94415.59
2023-02-26T04:50:18.588Z,94417.16
2023-02-26T04:52:48.021Z,94407.16
2023-02-26T04:55:16.078Z,94432.19
2023-02-26T04:57:44.114Z,94437.94
2023-02-26T05:00:13.365Z,94427.59
2023-02-26T05:02:41.404Z,94420.34
2023-02-26T05:05:10.185Z,94406.31
2023-02-26T05:07:38.189Z,94400.84
2023-02-26T05:10:09.086Z,94413.06
2023-02-26T05:12:37.725Z,94422.69
2023-02-26T05:15:07.424Z,94413.63
2023-02-26T05:17:36.482Z,94422.47
2023-02-26T05:20:05.330Z,94410.31
2023-02-26T05:22:33.254Z,94419.69
2023-02-26T05:25:01.250Z,94414.72
2023-02-26T05:27:30.661Z,94428.22
2023-02-26T05:29:58.627Z,94426.88
2023-02-26T05:32:26.686Z,94422.47
2023-02-26T05:34:54.751Z,94443.53
2023-02-26T05:37:22.725Z,94428.22
2023-02-26T05:39:50.746Z,94424.06
2023-02-26T05:42:18.955Z,94440.44
2023-02-26T05:44:48.314Z,94448.00
2023-02-26T05:47:16.334Z,94435.84
2023-02-26T05:49:44.348Z,94429.66
2023-02-26T05:52:12.299Z,94432.81
2023-02-26T05:54:40.263Z,94438.28
2023-02-26T05:57:08.292Z,94462.72
2023-02-26T05:59:36.294Z,94447.69
2023-02-26T06:02:05.813Z,94438.59
2023-02-26T06:04:33.860Z,94437.13
2023-02-26T06:07:02.173Z,94429.88
2023-02-26T06:09:30.338Z,94443.69
2023-02-26T06:11:58.407Z,94446.56
2023-02-26T06:14:26.612Z,94453.06
2023-02-26T06:16:54.595Z,94453.63
2023-02-26T06:19:24.124Z,94457.81
2023-02-26T06:21:52.133Z,94445.66
2023-02-26T06:24:20.246Z,94444.66
2023-02-26T06:26:48.278Z,94451.94
2023-02-26T06:29:18.395Z,94458.44
2023-02-26T06:31:46.550Z,94475.56
2023-02-26T06:34:14.914Z,94478.44
2023-02-26T06:36:45.037Z,94481.31
2023-02-26T06:39:13.842Z,94478.22
2023-02-26T06:41:41.882Z,94478.78
2023-02-26T06:44:11.449Z,94482.19
2023-02-26T06:46:39.672Z,94472.59
2023-02-26T06:49:08.062Z,94486.63
2023-02-26T06:51:36.157Z,94497.00
2023-02-26T06:54:05.690Z,94499.31
2023-02-26T06:56:33.718Z,94473.13
2023-02-26T06:59:02.696Z,94482.97
2023-02-26T07:01:32.124Z,94493.34
2023-02-26T07:04:00.124Z,94494.13
2023-02-26T07:06:28.411Z,94480.31
2023-02-26T07:08:57.056Z,94484.97
2023-02-26T07:11:26.543Z,94479.44
2023-02-26T07:13:55.160Z,94481.22
2023-02-26T07:16:23.367Z,94497.28
2023-02-26T07:18:51.563Z,94481.59
2023-02-26T07:21:19.591Z,94498.41
2023-02-26T07:23:47.528Z,94497.88
2023-02-26T07:26:17.612Z,94478.09
2023-02-26T07:28:47.033Z,94493.91
2023-02-26T07:31:16.709Z,94493.84
2023-02-26T07:33:44.794Z,94484.94
2023-02-26T07:36:12.813Z,94485.91
2023-02-26T07:38:40.840Z,94484.50
2023-02-26T07:41:08.863Z,94497.69
2023-02-26T07:43:36.905Z,94485.59
2023-02-26T07:46:06.757Z,94493.00
2023-02-26T07:48:34.770Z,94493.94
2023-02-26T07:51:02.797Z,94485.78
2023-02-26T07:53:30.861Z,94483.38
2023-02-26T07:55:58.898Z,94484.50
2023-02-26T07:58:27.049Z,94490.53
2023-02-26T08:00:55.086Z,94486.47
2023-02-26T08:03:24.418Z,94483.91
2023-02-26T08:05:52.368Z,94492.00
2023-02-26T08:08:20.404Z,94492.78
2023-02-26T08:10:48.466Z,94475.63
2023-02-26T08:13:16.490Z,94484.25
2023-02-26T08:15:45.136Z,94461.69
2023-02-26T08:18:13.559Z,94469.09
2023-02-26T08:20:42.962Z,94462.72
2023-02-26T08:23:11.024Z,94472.22
2023-02-26T08:25:39.136Z,94455.53
2023-02-26T08:28:07.159Z,94457.25
2023-02-26T08:30:35.270Z,94446.00
2023-02-26T08:33:03.311Z,94465.13
2023-02-26T08:35:31.338Z,94456.69
2023-02-26T08:38:00.715Z,94454.56
2023-02-26T08:40:28.675Z,94457.09
2023-02-26T08:42:58.470Z,94441.88
2023-02-26T08:45:28.292Z,94462.63
2023-02-26T08:47:57.471Z,94448.47
2023-02-26T08:50:26.239Z,94461.19
2023-02-26T08:52:54.552Z,94461.47
2023-02-26T08:55:24.811Z,94469.00
2023-02-26T08:57:52.932Z,94473.38
2023-02-26T09:00:21.750Z,94462.47
2023-02-26T09:02:50.148Z,94468.16
2023-02-26T09:05:18.867Z,94462.78
2023-02-26T09:07:46.967Z,94464.53
2023-02-26T09:10:16.099Z,94470.72
2023-02-26T09:12:45.523Z,94468.81
2023-02-26T09:15:14.969Z,94460.78
2023-02-26T09:17:43.337Z,94483.41
2023-02-26T09:20:13.726Z,94473.84
2023-02-26T09:22:41.749Z,94457.59
2023-02-26T09:25:10.526Z,94479.16
2023-02-26T09:27:38.588Z,94476.22
2023-02-26T09:30:09.293Z,94475.41
2023-02-26T09:32:38.098Z,94481.84
2023-02-26T09:35:06.889Z,94483.97
2023-02-26T09:37:34.969Z,94477.19
2023-02-26T09:40:03.552Z,94491.00
2023-02-26T09:42:50.478Z,94483.31
2023-02-26T09:45:26.992Z,94480.63
2023-02-26T09:47:56.289Z,94473.84
2023-02-26T09:50:27.466Z,94480.75
2023-02-26T09:53:01.628Z,94475.09
2023-02-26T09:55:33.144Z,94480.69
2023-02-26T09:58:03.556Z,94488.22
2023-02-26T10:00:38.667Z,94478.94
2023-02-26T10:03:20.691Z,94485.69
2023-02-26T10:06:11.788Z,94483.09
2023-02-26T10:08:48.353Z,94490.63
2023-02-26T10:11:24.982Z,94485.19
2023-02-26T10:13:58.592Z,94482.59
2023-02-26T10:16:32.831Z,94478.94
2023-02-26T10:19:07.343Z,94490.91
2023-02-26T10:21:41.617Z,94493.03
2023-02-26T10:24:15.231Z,94488.94
2023-02-26T10:26:46.693Z,94490.78
2023-02-26T10:29:23.237Z,94488.81
2023-02-26T10:32:04.866Z,94486.47
2023-02-26T10:34:38.129Z,94512.53
2023-02-26T10:37:16.473Z,94509.72
2023-02-26T10:39:50.518Z,94508.53
2023-02-26T10:42:24.153Z,94517.00
2023-02-26T10:45:03.417Z,94515.53
2023-02-26T10:47:44.414Z,94512.91
2023-02-26T10:50:15.749Z,94508.28
2023-02-26T10:52:46.114Z,94523.91
2023-02-26T10:55:43.432Z,94523.47
2023-02-26T10:58:14.579Z,94519.63
2023-02-26T11:00:44.474Z,94521.94
2023-02-26T11:03:18.051Z,94520.03
2023-02-26T11:05:46.867Z,94525.88
2023-02-26T11:08:17.609Z,94521.63
2023-02-26T11:10:50.567Z,94529.94
2023-02-26T11:13:18.744Z,94523.97
2023-02-26T11:15:51.406Z,94524.38
2023-02-26T11:18:25.686Z,94538.09
2023-02-26T11:20:57.540Z,94529.44
2023-02-26T11:23:28.750Z,94532.72
2023-02-26T11:26:02.880Z,94536.41
2023-02-26T11:28:35.910Z,94531.19
2023-02-26T11:31:07.123Z,94525.84
2023-02-26T11:33:40.357Z,94534.75
2023-02-26T11:36:12.288Z,94530.03
2023-02-26T11:38:40.383Z,94533.44
2023-02-26T11:41:09.248Z,94542.63
2023-02-26T11:43:44.455Z,94532.59
2023-02-26T11:46:14.472Z,94546.13
2023-02-26T11:48:47.536Z,94548.72
2023-02-26T11:51:19.986Z,94556.63
2023-02-26T11:53:51.160Z,94562.81
2023-02-26T11:56:28.014Z,94564.38
2023-02-26T11:58:56.537Z,94553.94
2023-02-26T12:01:28.846Z,94562.72
2023-02-26T12:04:02.153Z,94569.00
2023-02-26T12:06:30.743Z,94564.38
2023-02-26T12:08:58.848Z,94580.59
2023-02-26T12:11:52.718Z,94579.34
2023-02-26T12:14:37.599Z,94586.19
2023-02-26T12:17:16.427Z,94597.00
2023-02-26T12:19:52.206Z,94585.59
2023-02-26T12:22:43.902Z,94592.34
2023-02-26T12:25:40.907Z,94586.56
2023-02-26T12:28:32.809Z,94595.09
2023-02-26T12:31:25.918Z,94601.06
2023-02-26T12:34:09.841Z,94597.97
2023-02-26T12:36:52.808Z,94605.31
2023-02-26T12:39:33.884Z,94608.97
2023-02-26T12:42:14.594Z,94599.59
2023-02-26T12:44:59.831Z,94614.19
2023-02-26T12:47:38.009Z,94616.31
2023-02-26T12:50:23.122Z,94622.59
2023-02-26T12:53:03.520Z,94625.78
2023-02-26T12:55:40.590Z,94634.25
2023-02-26T12:58:27.570Z,94624.00
2023-02-26T13:01:22.271Z,94625.63
2023-02-26T13:04:18.630Z,94631.50
2023-02-26T13:07:21.522Z,94632.63
2023-02-26T13:10:00.133Z,94641.50
2023-02-26T13:12:39.521Z,94646.50
2023-02-26T13:15:26.327Z,94646.28
2023-02-26T13:18:02.962Z,94642.34
2023-02-26T13:20:33.247Z,94637.84
2023-02-26T13:23:04.863Z,94634.59
2023-02-26T13:25:39.240Z,94634.22
2023-02-26T13:28:20.571Z,94631.53
2023-02-26T13:30:51.434Z,94627.56
2023-02-26T13:33:21.948Z,94638.75
2023-02-26T13:35:53.399Z,94636.75
2023-02-26T13:38:29.603Z,94636.66
2023-02-26T13:41:10.917Z,94636.00
2023-02-26T13:43:53.254Z,94622.69
2023-02-26T13:46:33.422Z,94630.16
2023-02-26T13:49:08.060Z,94638.59
2023-02-26T13:51:39.867Z,94640.09
2023-02-26T13:54:19.395Z,94633.66
2023-02-26T13:56:55.852Z,94639.06
2023-02-26T13:59:54.842Z,94628.63
2023-02-26T14:02:46.329Z,94618.00
2023-02-26T14:05:36.428Z,94622.47
2023-02-26T14:08:44.821Z,94620.34
2023-02-26T14:11:43.615Z,94629.59
2023-02-26T14:14:20.287Z,94624.25
2023-02-26T14:16:54.156Z,94615.03
2023-02-26T14:19:27.695Z,94624.00
2023-02-26T14:21:59.108Z,94626.47
2023-02-26T14:24:36.912Z,94620.50
2023-02-26T14:27:10.776Z,94626.25
2023-02-26T14:29:43.646Z,94621.41
2023-02-26T14:32:17.093Z,94644.34
2023-02-26T14:34:51.989Z,94639.47
2023-02-26T14:37:24.014Z,94642.16
2023-02-26T14:39:57.719Z,94637.50
2023-02-26T14:42:34.545Z,94635.47
2023-02-26T14:45:15.434Z,94636.84
2023-02-26T14:47:44.630Z,94641.44
2023-02-26T14:50:17.359Z,94649.75
2023-02-26T14:53:05.412Z,94643.97
2023-02-26T14:55:48.964Z,94637.22
2023-02-26T14:58:29.915Z,94636.78
2023-02-26T15:01:20.612Z,94643.53
2023-02-26T15:04:15.236Z,94640.44
2023-02-26T15:07:13.352Z,94643.09
2023-02-26T15:09:54.912Z,94644.22
2023-02-26T15:12:38.725Z,94646.59
2023-02-26T15:15:29.918Z,94641.66
2023-02-26T15:18:19.488Z,94652.63
2023-02-26T15:20:57.858Z,94642.75
2023-02-26T15:23:39.667Z,94652.19
2023-02-26T15:26:11.380Z,94648.06
2023-02-26T15:28:42.284Z,94645.53
2023-02-26T15:31:13.858Z,94642.97
2023-02-26T15:33:45.554Z,94650.56
2023-02-26T15:36:17.886Z,94653.25
2023-02-26T15:38:55.832Z,94663.41
2023-02-26T15:41:25.238Z,94671.81
2023-02-26T15:43:58.504Z,94663.50
2023-02-26T15:46:31.073Z,94680.44
2023-02-26T15:49:06.585Z,94662.31
2023-02-26T15:51:35.231Z,94670.38
2023-02-26T15:54:05.137Z,94663.16
2023-02-26T15:56:37.863Z,94657.50
2023-02-26T15:59:09.767Z,94658.53
2023-02-26T16:01:38.010Z,94652.06
2023-02-26T16:04:13.776Z,94674.22
2023-02-26T16:06:46.019Z,94690.88
2023-02-26T16:09:18.265Z,94676.88
2023-02-26T16:11:48.150Z,94689.91
2023-02-26T16:14:22.657Z,94706.03
2023-02-26T16:16:52.733Z,94692.53
2023-02-26T16:19:30.468Z,94696.94
2023-02-26T16:22:00.390Z,94700.34
2023-02-26T16:24:30.353Z,94709.97
2023-02-26T16:27:04.952Z,94704.00
2023-02-26T16:29:35.816Z,94727.16
2023-02-26T16:32:08.139Z,94732.09
2023-02-26T16:34:43.367Z,94727.44
2023-02-26T16:37:14.449Z,94730.84
2023-02-26T16:39:45.698Z,94730.59
2023-02-26T16:42:17.985Z,94740.50
2023-02-26T16:44:49.983Z,94744.69
2023-02-26T16:47:18.357Z,94741.59
2023-02-26T16:49:49.390Z,94751.97
2023-02-26T16:52:20.927Z,94760.28
2023-02-26T16:54:57.505Z,94774.81
2023-02-26T16:57:32.159Z,94770.16
2023-02-26T17:00:04.664Z,94767.31
2023-02-26T17:02:36.579Z,94768.34
2023-02-26T17:05:16.304Z,94777.69
2023-02-26T17:07:51.620Z,94786.25
2023-02-26T17:10:24.912Z,94787.03
2023-02-26T17:12:54.548Z,94791.97
2023-02-26T17:15:30.888Z,94792.50
2023-02-26T17:17:59.081Z,94807.53
2023-02-26T17:20:30.795Z,94802.34
2023-02-26T17:23:00.512Z,94803.41
2023-02-26T17:25:36.824Z,94808.84
2023-02-26T17:28:05.412Z,94815.06
2023-02-26T17:30:34.666Z,94830.13
2023-02-26T17:33:04.987Z,94824.16
2023-02-26T17:35:34.526Z,94828.31
2023-02-26T17:38:02.918Z,94834.00
2023-02-26T17:40:36.439Z,94828.31
2023-02-26T17:43:04.823Z,94848.53
2023-02-26T17:45:34.123Z,94840.25
2023-02-26T17:48:02.681Z,94841.78
2023-02-26T17:50:43.954Z,94843.09
2023-02-26T17:53:11.981Z,94841.78
2023-02-26T17:55:40.981Z,94860.72
2023-02-26T17:58:16.526Z,94861.25
2023-02-26T18:00:46.094Z,94857.88
2023-02-26T18:03:14.224Z,94865.66
2023-02-26T18:05:43.846Z,94872.94
2023-02-26T18:08:20.382Z,94878.63
2023-02-26T18:10:48.641Z,94879.16
2023-02-26T18:13:16.750Z,94864.09
2023-02-26T18:15:44.790Z,94884.59
2023-02-26T18:18:13.689Z,94885.38
2023-02-26T18:20:44.061Z,94890.03
2023-02-26T18:23:13.844Z,94883.28
2023-02-26T18:25:44.464Z,94883.28
2023-02-26T18:28:15.863Z,94893.91
2023-02-26T18:30:44.770Z,94907.66
2023-02-26T18:33:17.004Z,94905.06
2023-02-26T18:35:50.149Z,94910.53
2023-02-26T18:38:20.888Z,94904.00
2023-02-26T18:40:49.944Z,94902.47
2023-02-26T18:43:18.032Z,94907.66
2023-02-26T18:45:48.433Z,94904.03
2023-02-26T18:48:18.099Z,94910.25
2023-02-26T18:50:49.091Z,94922.72
2023-02-26T18:53:23.185Z,94918.56
2023-02-26T18:55:52.871Z,94914.41
2023-02-26T18:58:21.013Z,94918.56
2023-02-26T19:00:49.071Z,94919.09
2023-02-26T19:03:17.050Z,94912.31
2023-02-26T19:05:45.116Z,94911.81
2023-02-26T19:08:15.269Z,94912.84
2023-02-26T19:10:43.320Z,94936.19
2023-02-26T19:13:11.486Z,94937.75
2023-02-26T19:15:39.462Z,94939.81
2023-02-26T19:18:07.424Z,94943.69
2023-02-26T19:20:35.478Z,94946.81
2023-02-26T19:23:03.574Z,94942.91
2023-02-26T19:25:33.993Z,94938.75
2023-02-26T19:28:02.190Z,94934.59
2023-02-26T19:30:30.304Z,94945.50
2023-02-26T19:32:58.802Z,94941.34
2023-02-26T19:35:27.299Z,94946.53
2023-02-26T19:37:55.398Z,94949.16
2023-02-26T19:40:24.653Z,94948.38
2023-02-26T19:42:54.014Z,94952.78
2023-02-26T19:45:22.225Z,94966.50
2023-02-26T19:47:50.277Z,94968.06
2023-02-26T19:50:19.412Z,94965.72
2023-02-26T19:52:47.420Z,94978.19
2023-02-26T19:55:15.677Z,94978.44
2023-02-26T19:57:43.763Z,94973.47
2023-02-26T20:00:15.991Z,94980.47
2023-02-26T20:02:44.222Z,94983.81
2023-02-26T20:05:17.023Z,94980.69
2023-02-26T20:07:47.022Z,94981.97
2023-02-26T20:10:16.269Z,94985.09
2023-02-26T20:12:45.145Z,94993.66
2023-02-26T20:15:14.684Z,94994.72
2023-02-26T20:17:42.779Z,94998.91
2023-02-26T20:20:12.224Z,94996.31
2023-02-26T20:22:40.290Z,94998.41
2023-02-26T20:25:09.113Z,95000.72
2023-02-26T20:27:37.494Z,94996.31
2023-02-26T20:30:06.968Z,95007.22
2023-02-26T20:32:37.228Z,95000.47
2023-02-26T20:35:06.059Z,95014.47
2023-02-26T20:37:34.151Z,95013.44
2023-02-26T20:40:02.185Z,95016.59
2023-02-26T20:42:30.264Z,95018.72
2023-02-26T20:44:58.226Z,95015.56
2023-02-26T20:47:26.274Z,95013.44
2023-02-26T20:49:55.790Z,95029.53
2023-02-26T20:52:24.292Z,95030.03
2023-02-26T20:54:52.276Z,95032.63
2023-02-26T20:57:20.325Z,95029.53
2023-02-26T20:59:48.387Z,95030.56
2023-02-26T21:02:20.756Z,95039.88
2023-02-26T21:04:49.047Z,95035.47
2023-02-26T21:07:22.117Z,95034.69
2023-02-26T21:09:51.858Z,95032.63
2023-02-26T21:12:20.340Z,95034.19
2023-02-26T21:14:51.339Z,95033.41
2023-02-26T21:17:19.750Z,95042.50
2023-02-26T21:19:47.700Z,95037.31
2023-02-26T21:22:15.819Z,95044.06
2023-02-26T21:24:45.783Z,95036.81
2023-02-26T21:27:16.752Z,95038.06
2023-02-26T21:29:45.203Z,95038.34
2023-02-26T21:32:13.322Z,95041.47
2023-02-26T21:34:41.676Z,95044.06
2023-02-26T21:37:11.763Z,95047.69
2023-02-26T21:39:40.384Z,95044.03
2023-02-26T21:42:12.738Z,95046.13
2023-02-26T21:44:41.284Z,95048.19
2023-02-26T21:47:09.643Z,95050.28
2023-02-26T21:49:37.931Z,95046.13
2023-02-26T21:52:08.123Z,95048.19
2023-02-26T21:54:36.656Z,95042.50
2023-02-26T21:57:04.872Z,95044.28
2023-02-26T21:59:34.533Z,95054.94
2023-02-26T22:02:03.270Z,95050.81
2023-02-26T22:04:31.430Z,95054.97
2023-02-26T22:06:59.408Z,95056.50
2023-02-26T22:09:27.455Z,95063.25
2023-02-26T22:11:55.452Z,95047.41
2023-02-26T22:14:23.403Z,95057.03
2023-02-26T22:16:52.848Z,95059.13
2023-02-26T22:19:20.947Z,95054.97
2023-02-26T22:21:49.070Z,95067.97
2023-02-26T22:24:17.139Z,95059.16
2023-02-26T22:26:47.085Z,95061.22
2023-02-26T22:29:15.140Z,95069.03
2023-02-26T22:31:43.218Z,95063.84
2023-02-26T22:34:12.690Z,95064.34
2023-02-26T22:36:40.688Z,95069.03
2023-02-26T22:39:08.937Z,95071.34
2023-02-26T22:41:37.913Z,95068.94
2023-02-26T22:44:07.225Z,95074.13
2023-02-26T22:46:36.118Z,95078.50
2023-02-26T22:49:04.341Z,95076.69
2023-02-26T22:51:33.987Z,95076.69
2023-02-26T22:54:02.411Z,95072.28
2023-02-26T22:56:30.453Z,95083.94
2023-02-26T22:58:58.556Z,95086.50
2023-02-26T23:01:26.996Z,95082.59
2023-02-26T23:03:54.934Z,95083.66
2023-02-26T23:06:23.056Z,95093.22
2023-02-26T23:08:52.685Z,95091.09
2023-02-26T23:11:20.864Z,95099.09
2023-02-26T23:13:48.851Z,95086.94
2023-02-26T23:16:17.183Z,95098.34
2023-02-26T23:18:48.132Z,95093.94
2023-02-26T23:21:16.554Z,95100.41
2023-02-26T23:23:45.150Z,95102.97
2023-02-26T23:26:15.496Z,95102.97
2023-02-26T23:28:44.198Z,95105.03
2023-02-26T23:31:12.265Z,95105.81
2023-02-26T23:33:40.305Z,95115.97
2023-02-26T23:36:09.201Z,95111.84
2023-02-26T23:38:37.614Z,95111.34
2023-02-26T23:41:05.891Z,95112.41
2023-02-26T23:43:35.529Z,95116.28
2023-02-26T23:46:03.638Z,95118.56
2023-02-26T23:48:31.662Z,95122.41
2023-02-26T23:50:59.771Z,95131.72
2023-02-26T23:53:27.760Z,95128.84
2023-02-26T23:55:58.776Z,95127.25
2023-02-26T23:58:27.733Z,95127.25
